Time;durP1;ratioP1;P1;durP2;ratioP2;P2;SDS_P1;SDS_P2;PMS_P1;PMS_P2;Temp;Humidity;BMP_temperature;BMP_pressure;BME280_temperature;BME280_humidity;BME280_pressure;Samples;Min_cycle;Max_cycle;Signal;HPM_P1;HPM_P2
2023/12/20 00:00:37;;;;;;;1.38;0.90;;;8.10;99.90;;;;;;5036591;28;20029;-65
2023/12/20 00:03:03;;;;;;;1.45;0.70;;;8.10;99.90;;;;;;5037402;28;20033;-64
2023/12/20 00:05:28;;;;;;;1.98;0.80;;;8.10;99.90;;;;;;5025582;28;20507;-66
2023/12/20 00:07:54;;;;;;;1.40;0.77;;;8.10;99.90;;;;;;5023998;28;20112;-65
2023/12/20 00:10:19;;;;;;;2.67;0.85;;;8.10;99.90;;;;;;5020682;28;20492;-64
2023/12/20 00:12:45;;;;;;;3.15;0.85;;;8.10;99.90;;;;;;5019212;28;20033;-64
2023/12/20 00:15:11;;;;;;;0.90;0.77;;;8.10;99.90;;;;;;5020082;28;20471;-64
2023/12/20 00:17:36;;;;;;;2.10;0.88;;;8.00;99.90;;;;;;5024405;28;20049;-66
2023/12/20 00:20:02;;;;;;;1.25;0.70;;;8.00;99.90;;;;;;5020763;28;20029;-66
2023/12/20 00:22:28;;;;;;;1.15;0.73;;;8.00;99.90;;;;;;5020360;28;21890;-66
2023/12/20 00:24:53;;;;;;;2.08;0.80;;;8.00;99.90;;;;;;5018513;28;20026;-63
2023/12/20 00:27:19;;;;;;;1.27;0.75;;;8.00;99.90;;;;;;5018590;28;20030;-65
2023/12/20 00:29:47;;;;;;;2.75;0.73;;;8.00;99.90;;;;;;5019666;28;20022;-64
2023/12/20 00:32:13;;;;;;;1.38;0.88;;;8.00;99.90;;;;;;5020614;28;20034;-65
2023/12/20 00:34:38;;;;;;;2.63;1.00;;;7.90;99.90;;;;;;5018420;28;20104;-64
2023/12/20 00:37:04;;;;;;;1.40;0.80;;;7.90;99.90;;;;;;5019683;28;20391;-63
2023/12/20 00:39:30;;;;;;;0.95;0.70;;;7.90;99.90;;;;;;5012376;28;20018;-63
2023/12/20 00:41:55;;;;;;;1.13;0.80;;;7.90;99.90;;;;;;5018948;28;20022;-65
2023/12/20 00:44:21;;;;;;;1.58;0.80;;;7.90;99.90;;;;;;5025470;28;20071;-65
2023/12/20 00:46:46;;;;;;;3.42;1.00;;;7.80;99.90;;;;;;5025920;28;20424;-64
2023/12/20 00:49:12;;;;;;;2.70;1.13;;;7.80;99.90;;;;;;5016763;28;20374;-65
2023/12/20 00:51:37;;;;;;;2.53;0.80;;;7.80;99.90;;;;;;5024039;28;20075;-65
2023/12/20 00:54:03;;;;;;;2.47;0.88;;;7.80;99.90;;;;;;5019002;28;20080;-64
2023/12/20 00:56:28;;;;;;;3.10;1.00;;;7.80;99.90;;;;;;5018336;28;20025;-66
2023/12/20 00:58:54;;;;;;;2.10;0.80;;;7.70;99.90;;;;;;5024545;28;20068;-66
2023/12/20 01:01:19;;;;;;;1.70;0.90;;;7.70;99.90;;;;;;5020052;28;20025;-65
2023/12/20 01:03:45;;;;;;;3.38;1.00;;;7.70;99.90;;;;;;5017312;28;22584;-66
2023/12/20 01:06:10;;;;;;;0.70;0.70;;;7.70;99.90;;;;;;5020650;28;20484;-65
2023/12/20 01:08:37;;;;;;;0.90;0.75;;;7.70;99.90;;;;;;5023480;28;20669;-65
2023/12/20 01:11:06;;;;;;;2.28;0.80;;;7.60;99.90;;;;;;5019229;28;20030;-66
2023/12/20 01:13:32;;;;;;;2.55;0.85;;;7.60;99.90;;;;;;5016075;28;20041;-66
2023/12/20 01:15:57;;;;;;;1.17;0.90;;;7.60;99.90;;;;;;5018743;28;20057;-67
2023/12/20 01:18:23;;;;;;;1.90;0.80;;;7.60;99.90;;;;;;5022010;28;20451;-63
2023/12/20 01:20:48;;;;;;;2.35;0.90;;;7.60;99.90;;;;;;5024542;28;20475;-63
2023/12/20 01:23:14;;;;;;;1.50;0.70;;;7.50;99.90;;;;;;5019190;28;20061;-66
2023/12/20 01:25:39;;;;;;;2.10;0.70;;;7.50;99.90;;;;;;5014067;28;20062;-65
2023/12/20 01:28:05;;;;;;;2.92;0.90;;;7.50;99.90;;;;;;5013955;28;20438;-64
2023/12/20 01:30:30;;;;;;;1.70;1.00;;;7.50;99.90;;;;;;5024824;28;20034;-64
2023/12/20 01:32:56;;;;;;;1.58;0.85;;;7.50;99.90;;;;;;5023492;28;20033;-66
2023/12/20 01:35:21;;;;;;;1.52;0.80;;;7.50;99.90;;;;;;5022812;28;20026;-64
2023/12/20 01:37:47;;;;;;;1.40;0.90;;;7.50;99.90;;;;;;5024752;28;20050;-63
2023/12/20 01:40:12;;;;;;;2.60;1.05;;;7.50;99.90;;;;;;5013909;28;20105;-64
2023/12/20 01:42:38;;;;;;;1.50;0.82;;;7.50;99.90;;;;;;5020651;28;20061;-65
2023/12/20 01:45:04;;;;;;;2.45;1.08;;;7.40;99.90;;;;;;5015303;28;20029;-65
2023/12/20 01:47:30;;;;;;;2.35;0.95;;;7.40;99.90;;;;;;5018836;28;20018;-65
2023/12/20 01:49:56;;;;;;;1.42;0.82;;;7.40;99.90;;;;;;5015647;28;20023;-64
2023/12/20 01:52:23;;;;;;;2.08;0.93;;;7.40;99.90;;;;;;5025333;28;20495;-66
2023/12/20 01:54:49;;;;;;;3.17;0.90;;;7.40;99.90;;;;;;5020631;28;20436;-65
2023/12/20 01:57:15;;;;;;;1.35;0.75;;;7.40;99.90;;;;;;5015271;28;20029;-64
2023/12/20 01:59:41;;;;;;;2.42;0.80;;;7.40;99.90;;;;;;5015637;28;20025;-63
2023/12/20 02:02:07;;;;;;;3.53;1.17;;;7.40;99.90;;;;;;5016563;28;20067;-65
2023/12/20 02:04:34;;;;;;;2.10;0.88;;;7.40;99.90;;;;;;5019252;28;20365;-64
2023/12/20 02:07:00;;;;;;;1.98;0.80;;;7.40;99.90;;;;;;5012216;28;20042;-65
2023/12/20 02:09:26;;;;;;;2.92;1.08;;;7.40;99.90;;;;;;5018706;28;20026;-65
2023/12/20 02:11:52;;;;;;;2.42;1.00;;;7.40;99.90;;;;;;5019382;28;20451;-63
2023/12/20 02:14:17;;;;;;;1.58;0.93;;;7.40;99.90;;;;;;5022813;28;20029;-65
2023/12/20 02:16:43;;;;;;;3.88;1.00;;;7.40;99.90;;;;;;5019268;28;20025;-65
2023/12/20 02:19:14;;;;;;;3.38;1.13;;;7.40;99.90;;;;;;5020456;28;20040;-65
2023/12/20 02:21:39;;;;;;;3.13;1.23;;;7.40;99.90;;;;;;5021224;28;20076;-65
2023/12/20 02:24:05;;;;;;;2.85;1.00;;;7.40;99.90;;;;;;5016584;28;20118;-65
2023/12/20 02:26:33;;;;;;;3.90;1.35;;;7.40;99.90;;;;;;5022544;28;20029;-66
2023/12/20 02:28:59;;;;;;;3.80;0.95;;;7.40;99.90;;;;;;5013878;28;20562;-65
2023/12/20 02:31:24;;;;;;;1.58;0.90;;;7.40;99.90;;;;;;5017191;28;20033;-66
2023/12/20 02:33:50;;;;;;;3.95;0.90;;;7.40;99.90;;;;;;5015847;28;20034;-63
2023/12/20 02:36:15;;;;;;;3.33;1.00;;;7.50;99.90;;;;;;5018395;28;20093;-69
2023/12/20 02:38:41;;;;;;;3.33;0.90;;;7.50;99.90;;;;;;5023727;28;20294;-66
2023/12/20 02:41:06;;;;;;;1.58;0.80;;;7.50;99.90;;;;;;5018841;28;20147;-65
2023/12/20 02:43:32;;;;;;;2.75;0.90;;;7.50;99.90;;;;;;5020513;28;20535;-65
2023/12/20 02:45:57;;;;;;;3.15;0.90;;;7.50;99.90;;;;;;5016813;28;20029;-65
2023/12/20 02:48:23;;;;;;;2.15;0.90;;;7.50;99.90;;;;;;5023540;28;20029;-64
2023/12/20 02:50:49;;;;;;;4.13;1.13;;;7.50;99.90;;;;;;5016907;28;20030;-65
2023/12/20 02:53:14;;;;;;;2.33;1.45;;;7.50;99.90;;;;;;5017600;28;20044;-64
2023/12/20 02:55:40;;;;;;;2.95;1.08;;;7.50;99.90;;;;;;5016722;28;20627;-64
2023/12/20 02:58:06;;;;;;;7.15;1.55;;;7.50;99.90;;;;;;5019093;28;20022;-65
2023/12/20 03:00:31;;;;;;;2.53;1.00;;;7.60;99.90;;;;;;5011831;28;20030;-65
2023/12/20 03:02:57;;;;;;;1.98;0.80;;;7.60;99.90;;;;;;5010665;28;20034;-66
2023/12/20 03:05:22;;;;;;;0.88;0.80;;;7.60;99.90;;;;;;5012515;28;20052;-65
2023/12/20 03:07:48;;;;;;;2.85;0.90;;;7.60;99.90;;;;;;5017407;28;20121;-65
2023/12/20 03:10:13;;;;;;;5.05;1.20;;;7.60;99.90;;;;;;5023302;28;20028;-62
2023/12/20 03:12:39;;;;;;;1.92;1.00;;;7.60;99.90;;;;;;5013987;28;20084;-64
2023/12/20 03:15:05;;;;;;;4.95;1.30;;;7.60;99.90;;;;;;5022454;28;20046;-64
2023/12/20 03:17:30;;;;;;;3.00;1.10;;;7.60;99.90;;;;;;5018442;28;20087;-65
2023/12/20 03:19:56;;;;;;;4.95;1.10;;;7.60;99.90;;;;;;5016189;28;20463;-65
2023/12/20 03:22:22;;;;;;;4.47;1.55;;;7.60;99.90;;;;;;5022048;28;20029;-64
2023/12/20 03:24:47;;;;;;;3.25;1.00;;;7.60;99.90;;;;;;5024788;28;20026;-65
2023/12/20 03:27:13;;;;;;;3.05;1.02;;;7.60;99.90;;;;;;5021668;28;20022;-65
2023/12/20 03:29:38;;;;;;;1.98;0.90;;;7.60;99.90;;;;;;5020657;28;20026;-65
2023/12/20 03:32:04;;;;;;;3.00;1.08;;;7.60;99.90;;;;;;5022419;28;20529;-65
2023/12/20 03:34:30;;;;;;;2.88;1.13;;;7.60;99.90;;;;;;5014814;28;20033;-65
2023/12/20 03:36:55;;;;;;;2.03;1.10;;;7.50;99.90;;;;;;5020337;28;20480;-65
2023/12/20 03:39:21;;;;;;;3.67;1.25;;;7.50;99.90;;;;;;5024618;28;20136;-65
2023/12/20 03:41:46;;;;;;;3.80;1.30;;;7.50;99.90;;;;;;5025025;28;20040;-66
2023/12/20 03:44:12;;;;;;;4.95;1.10;;;7.50;99.90;;;;;;5028484;28;20060;-65
2023/12/20 03:46:37;;;;;;;3.58;1.27;;;7.50;99.90;;;;;;5024606;28;20037;-64
2023/12/20 03:49:03;;;;;;;3.78;1.30;;;7.50;99.90;;;;;;5026949;28;20160;-65
2023/12/20 03:51:28;;;;;;;3.75;1.30;;;7.50;99.90;;;;;;5023239;28;20064;-66
2023/12/20 03:53:54;;;;;;;4.32;1.13;;;7.50;99.90;;;;;;5022932;28;20038;-65
2023/12/20 03:56:19;;;;;;;3.53;1.23;;;7.50;99.90;;;;;;5020830;28;20025;-64
2023/12/20 03:58:45;;;;;;;2.75;1.20;;;7.50;99.90;;;;;;5019488;28;20030;-65
2023/12/20 04:01:12;;;;;;;3.15;1.17;;;7.50;99.90;;;;;;5018636;28;20022;-65
2023/12/20 04:03:38;;;;;;;4.30;1.50;;;7.50;99.90;;;;;;5017927;28;20030;-64
2023/12/20 04:06:04;;;;;;;2.47;1.15;;;7.50;99.90;;;;;;5016215;28;20021;-65
2023/12/20 04:08:29;;;;;;;2.83;1.00;;;7.50;99.90;;;;;;5020569;28;20025;-65
2023/12/20 04:10:55;;;;;;;4.53;1.60;;;7.50;99.90;;;;;;5018511;28;20071;-67
2023/12/20 04:13:20;;;;;;;3.45;1.27;;;7.50;99.90;;;;;;5016846;28;20056;-66
2023/12/20 04:15:46;;;;;;;2.63;1.10;;;7.50;99.90;;;;;;5019626;28;20064;-66
2023/12/20 04:18:11;;;;;;;2.55;1.10;;;7.60;99.90;;;;;;5020228;28;20025;-66
2023/12/20 04:20:37;;;;;;;4.40;1.20;;;7.60;99.90;;;;;;5018780;28;20052;-64
2023/12/20 04:23:03;;;;;;;4.07;1.10;;;7.60;99.90;;;;;;5018338;28;20033;-65
2023/12/20 04:25:28;;;;;;;2.08;0.93;;;7.60;99.90;;;;;;5018273;28;20026;-66
2023/12/20 04:27:54;;;;;;;4.75;1.38;;;7.60;99.90;;;;;;5017397;28;20048;-64
2023/12/20 04:30:19;;;;;;;2.90;1.15;;;7.60;99.90;;;;;;5022324;28;20431;-66
2023/12/20 04:32:45;;;;;;;3.15;1.13;;;7.70;99.90;;;;;;5022907;28;20041;-65
2023/12/20 04:35:10;;;;;;;3.60;1.17;;;7.70;99.90;;;;;;5021857;28;20682;-66
2023/12/20 04:37:36;;;;;;;2.38;0.90;;;7.70;99.90;;;;;;5021447;28;20058;-66
2023/12/20 04:40:01;;;;;;;4.75;1.20;;;7.70;99.90;;;;;;5017642;28;20068;-65
2023/12/20 04:42:27;;;;;;;3.20;0.85;;;7.70;99.90;;;;;;5025350;28;20097;-67
2023/12/20 04:44:53;;;;;;;3.78;1.27;;;7.70;99.90;;;;;;5019616;28;20056;-66
2023/12/20 04:47:18;;;;;;;6.00;1.45;;;7.80;99.90;;;;;;5023114;28;20479;-64
2023/12/20 04:49:44;;;;;;;6.82;1.50;;;7.80;99.90;;;;;;5017999;28;20022;-64
2023/12/20 04:52:09;;;;;;;5.20;1.58;;;7.80;99.90;;;;;;5020133;28;20140;-65
2023/12/20 04:54:35;;;;;;;4.13;1.10;;;7.80;99.90;;;;;;5026187;28;20022;-66
2023/12/20 04:57:01;;;;;;;3.97;1.20;;;7.90;99.90;;;;;;5021813;28;20471;-65
2023/12/20 04:59:26;;;;;;;3.53;1.45;;;7.80;99.90;;;;;;5018556;28;20024;-66
2023/12/20 05:01:52;;;;;;;4.45;1.58;;;7.90;99.90;;;;;;5018254;28;20026;-66
2023/12/20 05:04:17;;;;;;;4.07;1.20;;;7.90;99.90;;;;;;5016856;28;20108;-64
2023/12/20 05:06:43;;;;;;;6.53;1.50;;;7.90;99.90;;;;;;5020141;28;20029;-65
2023/12/20 05:09:09;;;;;;;4.47;1.40;;;7.90;99.90;;;;;;5018040;28;20022;-66
2023/12/20 05:11:35;;;;;;;5.53;1.30;;;7.90;99.90;;;;;;5015790;28;20040;-66
2023/12/20 05:14:00;;;;;;;5.75;1.30;;;7.90;99.90;;;;;;5021534;28;20026;-67
2023/12/20 05:16:26;;;;;;;3.97;1.20;;;7.90;99.90;;;;;;5014633;28;20037;-66
2023/12/20 05:18:52;;;;;;;2.92;1.17;;;8.00;99.90;;;;;;5019087;28;20049;-65
2023/12/20 05:21:18;;;;;;;3.55;1.00;;;8.00;99.90;;;;;;5020148;28;20112;-64
2023/12/20 05:23:43;;;;;;;2.75;1.10;;;8.00;99.90;;;;;;5026958;28;20104;-65
2023/12/20 05:26:09;;;;;;;3.78;1.20;;;8.00;99.90;;;;;;5018730;28;20032;-65
2023/12/20 05:28:34;;;;;;;3.35;1.00;;;8.00;99.90;;;;;;5018047;28;20033;-67
2023/12/20 05:31:00;;;;;;;4.00;1.58;;;8.00;99.90;;;;;;5016695;28;20040;-65
2023/12/20 05:33:26;;;;;;;2.80;0.90;;;8.00;99.90;;;;;;5019388;28;20025;-63
2023/12/20 05:35:51;;;;;;;2.88;1.00;;;8.10;99.90;;;;;;5021796;28;20083;-64
2023/12/20 05:38:17;;;;;;;2.38;1.30;;;8.10;99.80;;;;;;5022851;28;20095;-65
2023/12/20 05:40:42;;;;;;;2.60;1.00;;;8.10;99.80;;;;;;5015645;28;20502;-65
2023/12/20 05:43:08;;;;;;;4.82;1.20;;;8.10;99.70;;;;;;5018014;28;20105;-66
2023/12/20 05:45:34;;;;;;;3.67;0.95;;;8.20;99.70;;;;;;5023360;28;20388;-64
2023/12/20 05:47:59;;;;;;;2.15;1.05;;;8.20;99.60;;;;;;5018629;28;20118;-66
2023/12/20 05:50:25;;;;;;;3.42;0.90;;;8.20;99.60;;;;;;5016735;28;20100;-65
2023/12/20 05:52:50;;;;;;;2.80;0.90;;;8.20;99.50;;;;;;5016231;28;20109;-65
2023/12/20 05:55:16;;;;;;;3.65;1.02;;;8.20;99.50;;;;;;5016463;28;20050;-65
2023/12/20 05:57:43;;;;;;;2.70;0.90;;;8.20;99.50;;;;;;5019787;28;20528;-65
2023/12/20 06:00:09;;;;;;;3.05;1.10;;;8.20;99.50;;;;;;5018481;28;20433;-65
2023/12/20 06:02:36;;;;;;;2.85;1.13;;;8.20;99.50;;;;;;5019201;28;20053;-66
2023/12/20 06:05:03;;;;;;;6.28;1.42;;;8.30;99.50;;;;;;5019237;28;20026;-65
2023/12/20 06:07:29;;;;;;;6.78;1.50;;;8.30;99.40;;;;;;5022359;28;20160;-63
2023/12/20 06:09:55;;;;;;;2.45;1.17;;;8.30;99.30;;;;;;5014572;28;20121;-65
2023/12/20 06:12:20;;;;;;;3.60;1.30;;;8.20;99.20;;;;;;5020685;28;20494;-65
2023/12/20 06:14:46;;;;;;;5.55;1.30;;;8.20;99.20;;;;;;5018705;28;20519;-64
2023/12/20 06:17:11;;;;;;;5.65;1.38;;;8.20;99.10;;;;;;5015455;28;20507;-65
2023/12/20 06:19:37;;;;;;;5.32;1.30;;;8.30;99.10;;;;;;5019977;28;20022;-64
2023/12/20 06:22:03;;;;;;;4.35;1.20;;;8.20;99.00;;;;;;5019329;28;20529;-65
2023/12/20 06:24:28;;;;;;;4.50;1.27;;;8.30;99.00;;;;;;5017609;28;20057;-63
2023/12/20 06:26:55;;;;;;;2.67;1.08;;;8.30;99.10;;;;;;5021024;28;20033;-65
2023/12/20 06:29:20;;;;;;;3.42;1.30;;;8.30;99.10;;;;;;5016846;28;20029;-64
2023/12/20 06:31:46;;;;;;;3.13;1.33;;;8.30;99.00;;;;;;5022539;28;20105;-66
2023/12/20 06:34:11;;;;;;;3.10;1.00;;;8.30;98.90;;;;;;5020932;28;20096;-65
2023/12/20 06:36:37;;;;;;;5.28;1.58;;;8.30;98.90;;;;;;5017740;28;20048;-66
2023/12/20 06:39:04;;;;;;;5.82;1.40;;;8.30;98.80;;;;;;5020917;28;20045;-67
2023/12/20 06:41:30;;;;;;;7.20;1.35;;;8.30;98.90;;;;;;5017297;28;20032;-66
2023/12/20 06:43:55;;;;;;;3.15;1.13;;;8.30;98.90;;;;;;5020268;28;20030;-66
2023/12/20 06:46:21;;;;;;;3.47;1.23;;;8.30;98.90;;;;;;5023315;28;20181;-67
2023/12/20 06:48:46;;;;;;;5.03;1.45;;;8.30;98.70;;;;;;5013027;28;20088;-67
2023/12/20 06:51:16;;;;;;;4.28;1.48;;;8.30;98.70;;;;;;5021735;28;20021;-65
2023/12/20 06:53:42;;;;;;;5.85;1.38;;;8.30;98.80;;;;;;5018426;28;20511;-65
2023/12/20 06:56:11;;;;;;;4.25;1.23;;;8.30;98.80;;;;;;5016677;28;20026;-65
2023/12/20 06:58:37;;;;;;;6.05;1.80;;;8.30;98.80;;;;;;5015673;28;20033;-66
2023/12/20 07:01:04;;;;;;;7.03;1.50;;;8.30;98.80;;;;;;5015079;28;20029;-66
2023/12/20 07:03:29;;;;;;;5.50;1.40;;;8.30;98.70;;;;;;5017475;28;20030;-67
2023/12/20 07:05:55;;;;;;;4.32;1.45;;;8.30;98.70;;;;;;5014772;28;20516;-67
2023/12/20 07:08:20;;;;;;;4.25;1.50;;;8.30;98.70;;;;;;5018300;28;20041;-71
2023/12/20 07:10:46;;;;;;;5.78;1.48;;;8.30;98.60;;;;;;5013732;28;20116;-69
2023/12/20 07:13:12;;;;;;;3.60;1.42;;;8.30;98.60;;;;;;5015017;28;20029;-66
2023/12/20 07:15:38;;;;;;;4.82;1.10;;;8.30;98.50;;;;;;5015721;28;20026;-65
2023/12/20 07:18:04;;;;;;;5.20;1.13;;;8.30;98.40;;;;;;5020618;28;20386;-65
2023/12/20 07:20:30;;;;;;;2.88;1.10;;;8.30;98.50;;;;;;5022195;28;20373;-65
2023/12/20 07:22:55;;;;;;;5.35;1.38;;;8.30;98.50;;;;;;5020367;28;20029;-66
2023/12/20 07:25:21;;;;;;;4.65;1.45;;;8.30;98.50;;;;;;5023141;28;20022;-66
2023/12/20 07:27:47;;;;;;;4.05;1.13;;;8.40;98.50;;;;;;5019122;28;20630;-65
2023/12/20 07:30:12;;;;;;;6.30;1.60;;;8.40;98.40;;;;;;5017728;28;20707;-65
2023/12/20 07:32:38;;;;;;;5.25;1.33;;;8.40;98.30;;;;;;5023405;28;20048;-65
2023/12/20 07:35:05;;;;;;;4.68;1.30;;;8.40;98.30;;;;;;5023476;28;20484;-66
2023/12/20 07:37:31;;;;;;;3.85;1.35;;;8.30;98.30;;;;;;5018225;28;20029;-65
2023/12/20 07:39:56;;;;;;;7.57;1.40;;;8.30;98.30;;;;;;5018657;28;20018;-66
2023/12/20 07:42:22;;;;;;;2.75;1.20;;;8.40;98.30;;;;;;5027151;28;20399;-67
2023/12/20 07:44:48;;;;;;;4.72;1.30;;;8.40;98.20;;;;;;5024074;28;20013;-65
2023/12/20 07:47:16;;;;;;;2.65;1.00;;;8.30;98.20;;;;;;5017767;28;20504;-67
2023/12/20 07:49:42;;;;;;;3.72;1.30;;;8.40;98.30;;;;;;5028591;28;20049;-65
2023/12/20 07:52:08;;;;;;;5.63;1.40;;;8.40;98.30;;;;;;5019934;28;20124;-66
2023/12/20 07:54:33;;;;;;;4.03;1.23;;;8.40;98.30;;;;;;5024383;28;20491;-67
2023/12/20 07:56:59;;;;;;;4.88;1.30;;;8.40;98.20;;;;;;5017963;28;20040;-66
2023/12/20 07:59:24;;;;;;;4.60;1.30;;;8.40;98.20;;;;;;5021066;28;20480;-65
2023/12/20 08:01:50;;;;;;;6.50;1.55;;;8.40;98.10;;;;;;5019287;28;20148;-66
2023/12/20 08:04:15;;;;;;;4.20;1.27;;;8.40;98.20;;;;;;5027335;28;20025;-66
2023/12/20 08:06:41;;;;;;;4.38;1.30;;;8.50;98.20;;;;;;5020682;28;20085;-64
2023/12/20 08:09:06;;;;;;;3.83;1.40;;;8.50;98.10;;;;;;5015090;28;20033;-65
2023/12/20 08:11:32;;;;;;;4.03;1.33;;;8.50;98.10;;;;;;5026248;28;20539;-65
2023/12/20 08:13:58;;;;;;;3.83;1.13;;;8.50;98.10;;;;;;5025709;28;20108;-66
2023/12/20 08:16:23;;;;;;;2.67;1.15;;;8.50;98.10;;;;;;5020452;28;20496;-65
2023/12/20 08:18:50;;;;;;;3.75;1.20;;;8.50;98.00;;;;;;5028451;28;20021;-67
2023/12/20 08:21:16;;;;;;;4.00;1.30;;;8.50;97.90;;;;;;5027450;28;20039;-64
2023/12/20 08:23:41;;;;;;;5.72;1.35;;;8.50;97.90;;;;;;5022285;28;20034;-64
2023/12/20 08:26:07;;;;;;;4.68;1.30;;;8.60;98.00;;;;;;5022520;28;20496;-66
2023/12/20 08:28:34;;;;;;;3.75;1.48;;;8.60;98.00;;;;;;5016823;28;20026;-65
2023/12/20 08:31:00;;;;;;;6.80;1.48;;;8.60;97.90;;;;;;5018042;28;20048;-65
2023/12/20 08:33:25;;;;;;;7.07;1.60;;;8.60;97.90;;;;;;5028128;28;20477;-64
2023/12/20 08:35:51;;;;;;;3.03;1.30;;;8.60;97.80;;;;;;5028673;28;20030;-66
2023/12/20 08:38:17;;;;;;;5.38;1.38;;;8.60;97.80;;;;;;5034982;28;20017;-64
2023/12/20 08:40:43;;;;;;;6.85;1.60;;;8.60;98.00;;;;;;5023773;28;20025;-64
2023/12/20 08:43:09;;;;;;;5.13;1.45;;;8.60;97.60;;;;;;5021292;28;20045;-65
2023/12/20 08:45:35;;;;;;;4.63;1.30;;;8.60;97.70;;;;;;5026137;28;20119;-64
2023/12/20 08:48:00;;;;;;;3.47;1.30;;;8.60;97.70;;;;;;5031155;28;20255;-65
2023/12/20 08:50:26;;;;;;;5.80;1.67;;;8.60;97.60;;;;;;5023874;28;20548;-65
2023/12/20 08:52:52;;;;;;;5.50;1.55;;;8.60;97.60;;;;;;5026242;28;20025;-66
2023/12/20 08:55:18;;;;;;;5.47;1.30;;;8.60;97.70;;;;;;5025854;28;20506;-66
2023/12/20 08:57:44;;;;;;;5.28;1.50;;;8.60;97.60;;;;;;5028359;28;20029;-66
2023/12/20 09:00:10;;;;;;;7.18;1.98;;;8.60;97.60;;;;;;5026030;28;20026;-66
2023/12/20 09:02:37;;;;;;;4.88;1.30;;;8.60;97.60;;;;;;5025140;28;20115;-65
2023/12/20 09:05:03;;;;;;;4.60;1.17;;;8.60;97.50;;;;;;5023759;28;20104;-66
2023/12/20 09:07:31;;;;;;;6.10;1.27;;;8.60;97.60;;;;;;5026509;28;20052;-65
2023/12/20 09:09:57;;;;;;;5.60;1.20;;;8.70;97.60;;;;;;5023761;28;20375;-66
2023/12/20 09:12:23;;;;;;;5.30;1.33;;;8.70;97.60;;;;;;5026945;28;20032;-66
2023/12/20 09:14:50;;;;;;;5.47;1.67;;;8.70;97.60;;;;;;5021465;28;20030;-65
2023/12/20 09:17:17;;;;;;;5.47;1.40;;;8.70;97.60;;;;;;5025666;28;20045;-64
2023/12/20 09:19:46;;;;;;;3.08;1.10;;;8.60;97.60;;;;;;5023879;28;20092;-65
2023/12/20 09:22:12;;;;;;;3.38;1.10;;;8.60;97.60;;;;;;5026368;28;20045;-64
2023/12/20 09:24:38;;;;;;;3.63;1.25;;;8.70;97.70;;;;;;5020578;28;20484;-65
2023/12/20 09:27:05;;;;;;;7.05;1.90;;;8.60;97.70;;;;;;5020254;28;20029;-66
2023/12/20 09:29:31;;;;;;;5.72;1.33;;;8.60;97.90;;;;;;5022653;28;20031;-64
2023/12/20 09:31:57;;;;;;;4.40;1.35;;;8.60;97.90;;;;;;5021720;28;20064;-66
2023/12/20 09:34:23;;;;;;;2.05;1.23;;;8.60;98.00;;;;;;5025962;28;20029;-64
2023/12/20 09:36:48;;;;;;;7.28;1.60;;;8.60;98.00;;;;;;5018118;28;20044;-65
2023/12/20 09:39:15;;;;;;;3.65;1.10;;;8.60;98.10;;;;;;5030897;28;20025;-65
2023/12/20 09:41:46;;;;;;;4.03;1.33;;;8.60;98.10;;;;;;5025337;28;20619;-65
2023/12/20 09:44:18;;;;;;;3.28;1.30;;;8.60;98.20;;;;;;5025108;28;20021;-66
2023/12/20 09:46:48;;;;;;;5.93;1.58;;;8.50;98.30;;;;;;5020135;28;20040;-66
2023/12/20 09:49:14;;;;;;;4.47;1.45;;;8.50;98.40;;;;;;5022398;28;20041;-64
2023/12/20 09:51:40;;;;;;;4.10;1.30;;;8.50;98.60;;;;;;5012911;28;20022;-66
2023/12/20 09:54:06;;;;;;;3.05;1.27;;;8.50;98.70;;;;;;5019158;28;20177;-68
2023/12/20 09:56:31;;;;;;;6.07;1.25;;;8.50;98.70;;;;;;5020471;28;20022;-65
2023/12/20 09:58:57;;;;;;;4.75;2.15;;;8.50;98.70;;;;;;5024732;28;20017;-66
2023/12/20 10:01:24;;;;;;;5.65;1.40;;;8.60;98.70;;;;;;5024412;28;20083;-67
2023/12/20 10:03:52;;;;;;;3.35;1.10;;;8.60;98.70;;;;;;5019248;28;20389;-67
2023/12/20 10:06:18;;;;;;;4.10;1.33;;;8.60;98.70;;;;;;5018233;28;20099;-66
2023/12/20 10:08:44;;;;;;;3.88;1.10;;;8.60;98.80;;;;;;5018277;28;20041;-67
2023/12/20 10:11:09;;;;;;;3.05;1.20;;;8.60;98.80;;;;;;5022097;28;20048;-66
2023/12/20 10:13:42;;;;;;;4.93;1.42;;;8.60;98.80;;;;;;5025229;28;20108;-66
2023/12/20 10:16:08;;;;;;;4.65;1.20;;;8.70;98.80;;;;;;5022066;28;20380;-66
2023/12/20 10:18:34;;;;;;;3.47;1.48;;;8.70;98.70;;;;;;5017254;28;20022;-66
2023/12/20 10:21:00;;;;;;;5.93;1.55;;;8.70;98.80;;;;;;5020286;28;20037;-66
2023/12/20 10:23:26;;;;;;;2.70;0.98;;;8.70;98.80;;;;;;5026765;28;20432;-66
2023/12/20 10:25:58;;;;;;;3.05;0.93;;;8.70;98.80;;;;;;5023908;28;20108;-65
2023/12/20 10:28:27;;;;;;;4.68;1.17;;;8.70;98.80;;;;;;5015201;28;20069;-66
2023/12/20 10:30:56;;;;;;;1.40;0.90;;;8.80;98.80;;;;;;5018546;28;20025;-65
2023/12/20 10:33:34;;;;;;;5.15;1.60;;;8.80;98.80;;;;;;5025617;28;20025;-65
2023/12/20 10:36:00;;;;;;;4.30;1.00;;;8.80;98.70;;;;;;5019580;28;20551;-67
2023/12/20 10:38:26;;;;;;;4.35;1.00;;;8.90;98.70;;;;;;5018983;28;20022;-65
2023/12/20 10:40:59;;;;;;;3.33;1.13;;;8.90;98.70;;;;;;5024455;28;20060;-66
2023/12/20 10:43:26;;;;;;;3.08;1.10;;;8.80;98.70;;;;;;5015145;28;20076;-65
2023/12/20 10:45:52;;;;;;;2.95;1.00;;;8.90;98.70;;;;;;5018543;28;20030;-65
2023/12/20 10:48:18;;;;;;;3.25;1.58;;;8.90;98.70;;;;;;5021193;28;20491;-65
2023/12/20 10:50:45;;;;;;;4.55;1.17;;;8.90;98.70;;;;;;5028910;28;20068;-66
2023/12/20 10:53:12;;;;;;;4.45;1.17;;;8.90;98.70;;;;;;5021787;28;20431;-65
2023/12/20 10:55:37;;;;;;;4.30;1.05;;;9.00;98.70;;;;;;5028524;28;20017;-66
2023/12/20 10:58:10;;;;;;;2.20;1.00;;;9.00;98.70;;;;;;5025503;28;20503;-66
2023/12/20 11:00:40;;;;;;;1.52;0.93;;;9.00;98.70;;;;;;5013263;28;20026;-64
2023/12/20 11:03:08;;;;;;;2.70;1.10;;;9.00;98.60;;;;;;5017050;28;20024;-65
2023/12/20 11:05:59;;;;;;;4.15;1.00;;;9.00;98.60;;;;;;5018540;28;20594;-65
2023/12/20 11:08:28;;;;;;;2.33;0.95;;;9.10;98.70;;;;;;5018247;28;20026;-64
2023/12/20 11:11:06;;;;;;;3.08;0.98;;;9.10;98.60;;;;;;5025258;28;20581;-65
2023/12/20 11:13:37;;;;;;;3.97;0.80;;;9.10;98.70;;;;;;5018340;28;20577;-65
2023/12/20 11:16:03;;;;;;;2.03;0.90;;;9.20;98.70;;;;;;5025017;28;20033;-65
2023/12/20 11:18:32;;;;;;;1.38;1.00;;;9.20;98.70;;;;;;5021306;28;20279;-65
2023/12/20 11:21:06;;;;;;;1.65;0.77;;;9.30;98.60;;;;;;5020425;28;20048;-66
2023/12/20 11:23:34;;;;;;;4.15;1.35;;;9.30;98.50;;;;;;5016523;28;20026;-66
2023/12/20 11:25:59;;;;;;;3.00;1.10;;;9.30;98.40;;;;;;5019755;28;20073;-64
2023/12/20 11:28:26;;;;;;;2.55;0.90;;;9.30;98.40;;;;;;5025632;28;20029;-65
2023/12/20 11:30:52;;;;;;;1.30;0.70;;;9.40;98.40;;;;;;5014506;28;20026;-66
2023/12/20 11:33:23;;;;;;;1.85;1.10;;;9.40;98.40;;;;;;5016949;28;20021;-64
2023/12/20 11:35:49;;;;;;;2.67;1.00;;;9.40;98.30;;;;;;5018439;28;20029;-65
2023/12/20 11:38:14;;;;;;;1.67;0.70;;;9.50;98.40;;;;;;5023800;28;20012;-65
2023/12/20 11:40:42;;;;;;;2.38;0.70;;;9.50;98.30;;;;;;5018554;28;20025;-64
2023/12/20 11:43:08;;;;;;;2.20;0.80;;;9.60;98.20;;;;;;5024336;28;20129;-66
2023/12/20 11:45:34;;;;;;;3.60;1.00;;;9.70;98.20;;;;;;5019383;28;20060;-65
2023/12/20 11:48:03;;;;;;;3.40;1.00;;;9.70;98.10;;;;;;5022833;28;20436;-66
2023/12/20 11:50:30;;;;;;;3.53;0.90;;;9.70;98.00;;;;;;5023059;28;20471;-62
2023/12/20 11:52:56;;;;;;;3.63;0.97;;;9.70;98.10;;;;;;5014471;28;20075;-66
2023/12/20 11:55:23;;;;;;;2.13;0.88;;;9.80;98.00;;;;;;5025360;28;20029;-63
2023/12/20 11:57:50;;;;;;;3.10;1.05;;;9.80;97.90;;;;;;5025629;28;20079;-65
2023/12/20 12:00:16;;;;;;;1.88;1.10;;;9.70;97.90;;;;;;5022138;28;20018;-65
2023/12/20 12:02:42;;;;;;;3.33;1.08;;;9.70;97.90;;;;;;5031039;28;20056;-65
2023/12/20 12:05:08;;;;;;;2.08;0.90;;;9.80;97.80;;;;;;5021667;28;20053;-64
2023/12/20 12:07:34;;;;;;;1.92;1.00;;;9.80;97.70;;;;;;5025980;28;20400;-63
2023/12/20 12:10:00;;;;;;;2.53;1.00;;;9.90;97.70;;;;;;5026723;28;20060;-64
2023/12/20 12:12:27;;;;;;;3.88;0.98;;;9.80;97.60;;;;;;5023954;28;20025;-65
2023/12/20 12:14:53;;;;;;;2.55;1.20;;;9.90;97.60;;;;;;5025072;28;20053;-65
2023/12/20 12:17:18;;;;;;;1.83;0.93;;;9.90;97.60;;;;;;5014020;28;20026;-65
2023/12/20 12:19:44;;;;;;;1.33;0.80;;;9.90;97.50;;;;;;5047169;28;20130;-64
2023/12/20 12:22:15;;;;;;;2.60;0.80;;;9.90;97.50;;;;;;5030133;28;20020;-65
2023/12/20 12:24:44;;;;;;;3.57;1.17;;;9.90;97.40;;;;;;5028949;28;20120;-65
2023/12/20 12:27:10;;;;;;;4.03;1.05;;;9.90;97.20;;;;;;5027063;28;20299;-65
2023/12/20 12:29:36;;;;;;;3.22;1.00;;;9.90;97.30;;;;;;5026881;28;20103;-65
2023/12/20 12:32:07;;;;;;;3.28;0.90;;;9.90;97.30;;;;;;5031753;28;20033;-65
2023/12/20 12:34:34;;;;;;;2.10;0.80;;;10.00;97.30;;;;;;5020242;28;20033;-65
2023/12/20 12:37:00;;;;;;;1.83;0.90;;;10.00;97.10;;;;;;5015903;28;20032;-65
2023/12/20 12:39:25;;;;;;;2.35;0.90;;;10.00;97.10;;;;;;5020221;28;20120;-65
2023/12/20 12:41:52;;;;;;;2.00;0.80;;;10.00;97.10;;;;;;5023194;28;20072;-64
2023/12/20 12:44:17;;;;;;;1.77;0.90;;;10.00;97.00;;;;;;5017629;28;20033;-64
2023/12/20 12:46:45;;;;;;;1.45;0.82;;;10.10;96.90;;;;;;5021957;28;20049;-65
2023/12/20 12:49:10;;;;;;;4.78;1.17;;;10.10;96.80;;;;;;5027557;28;20434;-66
2023/12/20 12:51:36;;;;;;;4.05;1.30;;;10.10;96.70;;;;;;5022384;28;20029;-65